sensor_id;sensor_type;location;lat;lon;timestamp;pressure;altitude;pressure_sealevel;temperature;humidity
21449;BME280;10885;52.830;13.788;2023-05-03T03:47:50;102273.63;;;4.43;70.90
21449;BME280;10885;52.830;13.788;2023-05-03T03:53:14;102280.28;;;4.34;71.22
21449;BME280;10885;52.830;13.788;2023-05-03T03:58:36;102285.75;;;4.30;71.13
21449;BME280;10885;52.830;13.788;2023-05-03T04:04:01;102286.38;;;4.20;71.90
21449;BME280;10885;52.830;13.788;2023-05-03T04:09:23;102289.31;;;4.16;72.37
21449;BME280;10885;52.830;13.788;2023-05-03T04:14:45;102290.53;;;4.19;72.69
21449;BME280;10885;52.830;13.788;2023-05-03T04:20:07;102303.38;;;4.21;72.10
21449;BME280;10885;52.830;13.788;2023-05-03T04:25:33;102319.28;;;4.27;72.54
21449;BME280;10885;52.830;13.788;2023-05-03T04:31:03;102315.84;;;4.27;73.86
21449;BME280;10885;52.830;13.788;2023-05-03T04:36:28;102313.59;;;4.37;72.74
21449;BME280;10885;52.830;13.788;2023-05-03T04:41:51;102322.41;;;4.48;71.90
21449;BME280;10885;52.830;13.788;2023-05-03T04:47:12;102328.16;;;4.54;71.45
21449;BME280;10885;52.830;13.788;2023-05-03T04:52:34;102327.25;;;4.69;71.94
21449;BME280;10885;52.830;13.788;2023-05-03T04:57:55;102329.03;;;4.77;71.30
21449;BME280;10885;52.830;13.788;2023-05-03T05:03:17;102328.03;;;5.00;69.17
21449;BME280;10885;52.830;13.788;2023-05-03T05:08:38;102335.69;;;5.16;68.99
21449;BME280;10885;52.830;13.788;2023-05-03T05:14:03;102344.00;;;5.31;68.41
21449;BME280;10885;52.830;13.788;2023-05-03T05:19:24;102344.59;;;5.44;68.10
21449;BME280;10885;52.830;13.788;2023-05-03T05:24:46;102344.31;;;5.66;67.31
21449;BME280;10885;52.830;13.788;2023-05-03T05:30:09;102342.38;;;5.88;66.56
21449;BME280;10885;52.830;13.788;2023-05-03T05:35:33;102355.13;;;6.12;65.49
21449;BME280;10885;52.830;13.788;2023-05-03T05:40:55;102356.75;;;6.36;65.16
21449;BME280;10885;52.830;13.788;2023-05-03T05:46:17;102361.47;;;6.58;64.83
21449;BME280;10885;52.830;13.788;2023-05-03T05:51:42;102368.47;;;6.76;64.35
21449;BME280;10885;52.830;13.788;2023-05-03T05:57:04;102368.22;;;7.00;63.59
21449;BME280;10885;52.830;13.788;2023-05-03T06:02:25;102377.28;;;7.22;62.31
21449;BME280;10885;52.830;13.788;2023-05-03T06:07:48;102377.88;;;7.54;61.62
21449;BME280;10885;52.830;13.788;2023-05-03T06:13:10;102373.84;;;7.74;61.05
21449;BME280;10885;52.830;13.788;2023-05-03T06:18:33;102385.47;;;8.15;60.49
21449;BME280;10885;52.830;13.788;2023-05-03T06:23:54;102377.91;;;8.52;59.14
21449;BME280;10885;52.830;13.788;2023-05-03T06:29:16;102386.91;;;8.85;57.94
21449;BME280;10885;52.830;13.788;2023-05-03T06:34:37;102382.88;;;9.06;57.54
21449;BME280;10885;52.830;13.788;2023-05-03T06:39:59;102386.19;;;9.51;56.97
21449;BME280;10885;52.830;13.788;2023-05-03T06:45:21;102384.31;;;10.07;55.32
21449;BME280;10885;52.830;13.788;2023-05-03T06:50:41;102388.50;;;10.55;52.15
21449;BME280;10885;52.830;13.788;2023-05-03T06:56:02;102377.53;;;11.07;50.92
21449;BME280;10885;52.830;13.788;2023-05-03T07:01:25;102386.38;;;11.52;49.99
21449;BME280;10885;52.830;13.788;2023-05-03T07:06:46;102386.63;;;12.08;47.26
21449;BME280;10885;52.830;13.788;2023-05-03T07:12:15;102384.03;;;12.62;45.38
21449;BME280;10885;52.830;13.788;2023-05-03T07:17:36;102391.47;;;13.37;45.01
21449;BME280;10885;52.830;13.788;2023-05-03T07:22:57;102391.28;;;14.53;40.34
21449;BME280;10885;52.830;13.788;2023-05-03T07:28:18;102387.53;;;17.30;35.24
21449;BME280;10885;52.830;13.788;2023-05-03T07:33:39;102399.13;;;20.91;28.85
21449;BME280;10885;52.830;13.788;2023-05-03T07:39:00;102396.09;;;22.75;25.14
21449;BME280;10885;52.830;13.788;2023-05-03T07:44:21;102396.50;;;21.10;26.81
21449;BME280;10885;52.830;13.788;2023-05-03T07:49:42;102396.38;;;20.11;28.04
21449;BME280;10885;52.830;13.788;2023-05-03T07:55:03;102386.19;;;19.27;29.21
21449;BME280;10885;52.830;13.788;2023-05-03T08:00:25;102394.31;;;19.34;29.20
21449;BME280;10885;52.830;13.788;2023-05-03T08:05:46;102389.72;;;17.98;30.72
21449;BME280;10885;52.830;13.788;2023-05-03T08:11:08;102387.50;;;18.68;30.25
21449;BME280;10885;52.830;13.788;2023-05-03T08:16:29;102378.47;;;18.62;28.93
21449;BME280;10885;52.830;13.788;2023-05-03T08:21:51;102378.31;;;19.60;28.08
21449;BME280;10885;52.830;13.788;2023-05-03T08:27:14;102375.00;;;20.56;26.66
21449;BME280;10885;52.830;13.788;2023-05-03T08:32:35;102384.66;;;21.59;26.45
21449;BME280;10885;52.830;13.788;2023-05-03T08:37:56;102383.75;;;21.79;25.62
21449;BME280;10885;52.830;13.788;2023-05-03T08:43:19;102382.66;;;22.64;24.23
21449;BME280;10885;52.830;13.788;2023-05-03T08:48:42;102380.25;;;22.95;23.40
21449;BME280;10885;52.830;13.788;2023-05-03T08:54:03;102382.41;;;23.58;22.38
21449;BME280;10885;52.830;13.788;2023-05-03T08:59:24;102386.28;;;24.27;22.34
21449;BME280;10885;52.830;13.788;2023-05-03T09:04:47;102384.66;;;23.74;22.96
21449;BME280;10885;52.830;13.788;2023-05-03T09:10:23;102380.06;;;24.52;20.84
21449;BME280;10885;52.830;13.788;2023-05-03T09:15:54;102385.22;;;25.14;20.14
21449;BME280;10885;52.830;13.788;2023-05-03T09:21:18;102386.31;;;25.93;20.08
21449;BME280;10885;52.830;13.788;2023-05-03T09:26:41;102390.94;;;26.89;19.25
21449;BME280;10885;52.830;13.788;2023-05-03T09:32:04;102393.16;;;26.25;18.12
21449;BME280;10885;52.830;13.788;2023-05-03T09:37:35;102384.53;;;23.71;21.80
21449;BME280;10885;52.830;13.788;2023-05-03T09:43:08;102386.66;;;23.29;21.60
21449;BME280;10885;52.830;13.788;2023-05-03T09:48:31;102388.09;;;23.73;21.48
21449;BME280;10885;52.830;13.788;2023-05-03T09:53:52;102386.13;;;23.93;21.03
21449;BME280;10885;52.830;13.788;2023-05-03T09:59:15;102379.69;;;22.55;21.99
21449;BME280;10885;52.830;13.788;2023-05-03T10:04:48;102376.94;;;21.41;23.19
21449;BME280;10885;52.830;13.788;2023-05-03T10:10:10;102374.47;;;22.55;23.28
21449;BME280;10885;52.830;13.788;2023-05-03T10:15:33;102375.41;;;24.73;21.54
21449;BME280;10885;52.830;13.788;2023-05-03T10:21:06;102375.75;;;25.54;19.25
21449;BME280;10885;52.830;13.788;2023-05-03T10:26:28;102376.91;;;26.03;18.26
21449;BME280;10885;52.830;13.788;2023-05-03T10:31:49;102384.34;;;26.65;17.75
21449;BME280;10885;52.830;13.788;2023-05-03T10:37:11;102370.34;;;27.15;18.43
21449;BME280;10885;52.830;13.788;2023-05-03T10:42:33;102373.91;;;27.73;17.75
21449;BME280;10885;52.830;13.788;2023-05-03T10:48:14;102374.47;;;27.51;16.48
21449;BME280;10885;52.830;13.788;2023-05-03T10:53:40;102362.88;;;27.99;16.48
21449;BME280;10885;52.830;13.788;2023-05-03T10:59:02;102349.34;;;27.19;17.42
21449;BME280;10885;52.830;13.788;2023-05-03T11:04:37;102356.28;;;27.13;16.76
21449;BME280;10885;52.830;13.788;2023-05-03T11:10:00;102357.13;;;27.10;16.82
21449;BME280;10885;52.830;13.788;2023-05-03T11:15:21;102356.81;;;27.45;16.97
21449;BME280;10885;52.830;13.788;2023-05-03T11:20:42;102349.44;;;26.74;16.97
21449;BME280;10885;52.830;13.788;2023-05-03T11:26:07;102358.69;;;27.01;16.38
21449;BME280;10885;52.830;13.788;2023-05-03T11:31:29;102340.41;;;27.08;16.91
21449;BME280;10885;52.830;13.788;2023-05-03T11:36:51;102339.72;;;27.20;16.64
21449;BME280;10885;52.830;13.788;2023-05-03T11:42:12;102329.66;;;26.49;16.73
21449;BME280;10885;52.830;13.788;2023-05-03T11:47:33;102313.41;;;26.70;17.38
21449;BME280;10885;52.830;13.788;2023-05-03T11:52:56;102324.41;;;26.49;17.46
21449;BME280;10885;52.830;13.788;2023-05-03T11:58:25;102321.44;;;26.77;17.20
21449;BME280;10885;52.830;13.788;2023-05-03T12:03:46;102315.38;;;26.36;16.66
21449;BME280;10885;52.830;13.788;2023-05-03T12:09:13;102323.94;;;26.70;17.00
21449;BME280;10885;52.830;13.788;2023-05-03T12:14:59;102316.69;;;26.14;17.28
21449;BME280;10885;52.830;13.788;2023-05-03T12:20:23;102309.25;;;26.81;17.36
21449;BME280;10885;52.830;13.788;2023-05-03T12:26:05;102313.81;;;26.44;18.20
21449;BME280;10885;52.830;13.788;2023-05-03T12:31:29;102311.72;;;26.73;17.41
21449;BME280;10885;52.830;13.788;2023-05-03T12:36:50;102303.06;;;26.33;17.69
21449;BME280;10885;52.830;13.788;2023-05-03T12:42:13;102297.63;;;26.23;18.32
21449;BME280;10885;52.830;13.788;2023-05-03T12:47:34;102313.06;;;26.51;18.12
21449;BME280;10885;52.830;13.788;2023-05-03T12:52:58;102296.91;;;26.77;17.58
21449;BME280;10885;52.830;13.788;2023-05-03T12:58:22;102288.97;;;26.28;17.38
21449;BME280;10885;52.830;13.788;2023-05-03T13:04:02;102291.09;;;25.64;17.64
21449;BME280;10885;52.830;13.788;2023-05-03T13:09:26;102281.19;;;25.51;18.47
21449;BME280;10885;52.830;13.788;2023-05-03T13:14:55;102270.50;;;25.84;18.79
21449;BME280;10885;52.830;13.788;2023-05-03T13:20:16;102278.28;;;25.40;18.79
21449;BME280;10885;52.830;13.788;2023-05-03T13:25:37;102267.75;;;25.38;18.83
21449;BME280;10885;52.830;13.788;2023-05-03T13:31:00;102270.88;;;25.60;18.35
21449;BME280;10885;52.830;13.788;2023-05-03T13:36:25;102253.97;;;25.47;18.86
21449;BME280;10885;52.830;13.788;2023-05-03T13:41:47;102254.91;;;24.78;20.17
21449;BME280;10885;52.830;13.788;2023-05-03T13:47:08;102251.47;;;24.79;19.62
21449;BME280;10885;52.830;13.788;2023-05-03T13:52:29;102242.19;;;24.93;19.38
21449;BME280;10885;52.830;13.788;2023-05-03T13:57:50;102229.22;;;24.65;19.00
21449;BME280;10885;52.830;13.788;2023-05-03T14:03:13;102238.19;;;24.41;20.16
21449;BME280;10885;52.830;13.788;2023-05-03T14:08:35;102219.28;;;24.51;19.85
21449;BME280;10885;52.830;13.788;2023-05-03T14:13:56;102223.81;;;24.58;19.58
21449;BME280;10885;52.830;13.788;2023-05-03T14:19:18;102211.13;;;24.09;20.50
21449;BME280;10885;52.830;13.788;2023-05-03T14:24:39;102201.41;;;23.74;20.56
21449;BME280;10885;52.830;13.788;2023-05-03T14:30:02;102198.25;;;23.56;20.77
21449;BME280;10885;52.830;13.788;2023-05-03T14:35:24;102206.19;;;23.88;20.49
21449;BME280;10885;52.830;13.788;2023-05-03T14:40:45;102200.78;;;23.83;20.77
21449;BME280;10885;52.830;13.788;2023-05-03T14:46:07;102207.44;;;23.72;20.32
21449;BME280;10885;52.830;13.788;2023-05-03T14:51:29;102202.91;;;23.66;20.34
21449;BME280;10885;52.830;13.788;2023-05-03T14:56:52;102202.38;;;23.48;20.49
21449;BME280;10885;52.830;13.788;2023-05-03T15:02:13;102203.16;;;23.45;21.22
21449;BME280;10885;52.830;13.788;2023-05-03T15:07:34;102196.44;;;23.25;20.70
21449;BME280;10885;52.830;13.788;2023-05-03T15:12:55;102199.09;;;23.26;21.02
21449;BME280;10885;52.830;13.788;2023-05-03T15:18:16;102201.03;;;23.05;21.67
21449;BME280;10885;52.830;13.788;2023-05-03T15:23:39;102195.97;;;22.83;21.34
21449;BME280;10885;52.830;13.788;2023-05-03T15:29:01;102193.91;;;22.23;22.05
21449;BME280;10885;52.830;13.788;2023-05-03T15:34:23;102183.66;;;21.80;23.01
21449;BME280;10885;52.830;13.788;2023-05-03T15:39:44;102190.59;;;21.55;22.76
21449;BME280;10885;52.830;13.788;2023-05-03T15:45:06;102186.59;;;21.65;23.07
21449;BME280;10885;52.830;13.788;2023-05-03T15:50:28;102184.13;;;21.45;23.72
21449;BME280;10885;52.830;13.788;2023-05-03T15:55:51;102175.97;;;21.60;23.13
21449;BME280;10885;52.830;13.788;2023-05-03T16:01:16;102186.97;;;21.52;23.51
21449;BME280;10885;52.830;13.788;2023-05-03T16:06:38;102181.38;;;21.65;23.75
21449;BME280;10885;52.830;13.788;2023-05-03T16:12:00;102181.66;;;21.28;23.43
21449;BME280;10885;52.830;13.788;2023-05-03T16:17:22;102180.09;;;21.33;23.76
21449;BME280;10885;52.830;13.788;2023-05-03T16:22:43;102174.94;;;21.34;23.70
21449;BME280;10885;52.830;13.788;2023-05-03T16:28:04;102168.66;;;21.06;23.44
21449;BME280;10885;52.830;13.788;2023-05-03T16:33:25;102163.84;;;20.95;23.86
21449;BME280;10885;52.830;13.788;2023-05-03T16:38:46;102158.53;;;20.92;24.11
21449;BME280;10885;52.830;13.788;2023-05-03T16:44:08;102164.53;;;20.68;24.88
21449;BME280;10885;52.830;13.788;2023-05-03T16:49:33;102155.16;;;20.52;25.36
21449;BME280;10885;52.830;13.788;2023-05-03T16:54:54;102156.16;;;20.35;25.09
21449;BME280;10885;52.830;13.788;2023-05-03T17:00:15;102149.91;;;20.10;24.76
21449;BME280;10885;52.830;13.788;2023-05-03T17:05:36;102154.97;;;19.68;26.19
21449;BME280;10885;52.830;13.788;2023-05-03T17:10:57;102161.44;;;19.39;26.99
21449;BME280;10885;52.830;13.788;2023-05-03T17:16:19;102163.09;;;19.19;27.25
21449;BME280;10885;52.830;13.788;2023-05-03T17:21:41;102159.25;;;18.93;28.25
21449;BME280;10885;52.830;13.788;2023-05-03T17:27:06;102160.38;;;18.45;29.54
21449;BME280;10885;52.830;13.788;2023-05-03T17:32:27;102162.13;;;18.12;30.05
21449;BME280;10885;52.830;13.788;2023-05-03T17:37:48;102161.81;;;17.73;30.68
21449;BME280;10885;52.830;13.788;2023-05-03T17:43:10;102171.56;;;17.46;31.52
21449;BME280;10885;52.830;13.788;2023-05-03T17:48:31;102159.59;;;17.17;31.77
21449;BME280;10885;52.830;13.788;2023-05-03T17:53:53;102174.22;;;16.70;32.73
21449;BME280;10885;52.830;13.788;2023-05-03T17:59:14;102176.56;;;16.07;34.81
21449;BME280;10885;52.830;13.788;2023-05-03T18:04:36;102174.03;;;15.94;34.61
21449;BME280;10885;52.830;13.788;2023-05-03T18:09:57;102178.28;;;15.79;34.85
21449;BME280;10885;52.830;13.788;2023-05-03T18:15:19;102189.06;;;15.45;35.42
21449;BME280;10885;52.830;13.788;2023-05-03T18:20:41;102188.41;;;15.21;36.55
21449;BME280;10885;52.830;13.788;2023-05-03T18:26:01;102193.06;;;14.86;37.61
21449;BME280;10885;52.830;13.788;2023-05-03T18:31:23;102190.44;;;14.60;38.05
21449;BME280;10885;52.830;13.788;2023-05-03T18:36:44;102193.63;;;14.30;38.78
21449;BME280;10885;52.830;13.788;2023-05-03T18:42:05;102193.09;;;13.98;39.73
21449;BME280;10885;52.830;13.788;2023-05-03T18:47:26;102195.06;;;13.77;39.98
21449;BME280;10885;52.830;13.788;2023-05-03T18:52:47;102196.72;;;13.51;40.69
21449;BME280;10885;52.830;13.788;2023-05-03T18:58:10;102198.38;;;13.27;41.53
21449;BME280;10885;52.830;13.788;2023-05-03T19:03:31;102205.56;;;13.07;41.98
21449;BME280;10885;52.830;13.788;2023-05-03T19:08:52;102217.75;;;12.86;42.70
21449;BME280;10885;52.830;13.788;2023-05-03T19:14:14;102210.81;;;12.73;43.04
21449;BME280;10885;52.830;13.788;2023-05-03T19:19:34;102219.03;;;12.46;44.23
21449;BME280;10885;52.830;13.788;2023-05-03T19:24:56;102220.97;;;12.26;44.12
21449;BME280;10885;52.830;13.788;2023-05-03T19:30:17;102212.75;;;12.08;45.28
21449;BME280;10885;52.830;13.788;2023-05-03T19:35:39;102215.50;;;12.00;45.28
21449;BME280;10885;52.830;13.788;2023-05-03T19:41:00;102215.25;;;11.97;45.17
21449;BME280;10885;52.830;13.788;2023-05-03T19:46:27;102218.81;;;11.77;44.62
21449;BME280;10885;52.830;13.788;2023-05-03T19:51:48;102220.63;;;11.67;45.48
21449;BME280;10885;52.830;13.788;2023-05-03T19:57:12;102219.53;;;11.53;45.85
21449;BME280;10885;52.830;13.788;2023-05-03T20:02:33;102222.75;;;11.19;48.00
21449;BME280;10885;52.830;13.788;2023-05-03T20:07:56;102213.81;;;11.03;49.50
